Time;durP1;ratioP1;P1;durP2;ratioP2;P2;SDS_P1;SDS_P2;PMS_P1;PMS_P2;Temp;Humidity;BMP_temperature;BMP_pressure;BME280_temperature;BME280_humidity;BME280_pressure;Samples;Min_cycle;Max_cycle;Signal;HPM_P1;HPM_P2
2023/09/13 00:02:21;;;;;;;24.13;20.50;;;19.40;99.90;;;;;;4994161;28;20194;-87
2023/09/13 00:04:46;;;;;;;25.00;22.30;;;19.40;99.90;;;;;;4996208;28;20256;-87
2023/09/13 00:07:12;;;;;;;28.40;21.57;;;19.20;99.90;;;;;;4996091;28;20629;-87
2023/09/13 00:09:41;;;;;;;27.93;22.07;;;19.50;99.90;;;;;;4994499;28;20688;-87
2023/09/13 00:12:10;;;;;;;26.30;21.63;;;19.30;99.90;;;;;;4996183;28;20221;-87
2023/09/13 00:14:35;;;;;;;29.67;22.67;;;19.30;99.90;;;;;;4995906;28;20575;-87
2023/09/13 00:17:01;;;;;;;26.40;23.20;;;19.40;99.90;;;;;;4996350;28;20197;-87
2023/09/13 00:19:27;;;;;;;30.97;24.73;;;19.20;99.90;;;;;;4994802;28;20174;-87
2023/09/13 00:21:53;;;;;;;34.93;25.13;;;19.30;99.90;;;;;;4995757;28;20573;-87
2023/09/13 00:24:18;;;;;;;29.53;24.53;;;19.30;99.90;;;;;;4995938;28;20177;-87
2023/09/13 00:26:44;;;;;;;33.40;27.50;;;19.30;99.90;;;;;;4994316;28;20184;-86
2023/09/13 00:29:09;;;;;;;32.50;26.77;;;19.30;99.90;;;;;;4994345;28;20227;-85
2023/09/13 00:31:35;;;;;;;36.00;27.40;;;19.30;99.90;;;;;;4994600;28;20202;-87
2023/09/13 00:34:01;;;;;;;38.87;27.93;;;19.40;99.90;;;;;;4995500;28;20200;-86
2023/09/13 00:36:27;;;;;;;38.03;28.50;;;19.30;99.90;;;;;;4994476;28;20193;-86
2023/09/13 00:38:52;;;;;;;40.83;28.73;;;19.30;99.90;;;;;;4994737;28;20173;-87
2023/09/13 00:41:18;;;;;;;43.17;28.30;;;19.30;99.90;;;;;;4994107;28;20197;-87
2023/09/13 00:43:44;;;;;;;38.97;29.70;;;19.50;99.90;;;;;;4994625;28;20212;-86
2023/09/13 00:46:10;;;;;;;38.17;28.93;;;19.50;99.90;;;;;;4994994;28;20173;-87
2023/09/13 00:48:36;;;;;;;41.00;29.07;;;19.50;99.90;;;;;;4994276;28;20628;-87
2023/09/13 00:51:02;;;;;;;38.40;28.00;;;19.30;99.90;;;;;;4993714;28;20193;-87
2023/09/13 00:53:30;;;;;;;35.67;27.10;;;19.40;99.90;;;;;;4994888;28;20664;-87
2023/09/13 00:55:56;;;;;;;37.20;27.10;;;19.40;99.90;;;;;;4993459;28;20232;-87
2023/09/13 00:58:22;;;;;;;38.03;26.73;;;19.50;99.90;;;;;;4995634;28;20205;-87
2023/09/13 01:00:49;;;;;;;36.47;26.57;;;19.40;99.90;;;;;;4995229;28;20281;-87
2023/09/13 01:03:16;;;;;;;43.20;25.60;;;19.40;99.90;;;;;;4993863;28;20173;-86
2023/09/13 01:05:42;;;;;;;32.73;24.60;;;19.30;99.90;;;;;;4995414;28;20174;-86
2023/09/13 01:08:07;;;;;;;32.37;22.70;;;19.30;99.90;;;;;;4993684;28;20181;-86
2023/09/13 01:10:33;;;;;;;30.43;21.20;;;19.30;99.90;;;;;;4994711;28;20181;-86
2023/09/13 01:12:58;;;;;;;29.60;22.17;;;19.40;99.90;;;;;;4994390;28;20177;-87
2023/09/13 01:15:28;;;;;;;29.37;21.90;;;19.40;99.90;;;;;;4993593;28;20240;-86
2023/09/13 01:18:03;;;;;;;27.60;21.27;;;19.50;99.90;;;;;;4993504;28;20201;-87
2023/09/13 01:21:06;;;;;;;35.87;22.37;;;19.30;99.90;;;;;;4993742;28;20158;-86
2023/09/13 01:23:51;;;;;;;32.87;22.03;;;19.40;99.90;;;;;;4899916;29;20752;-86
2023/09/13 01:26:57;;;;;;;26.93;21.10;;;19.40;99.90;;;;;;4987696;28;20235;-86
2023/09/13 01:29:25;;;;;;;26.10;20.90;;;19.30;99.90;;;;;;4988282;28;20188;-87
2023/09/13 01:31:51;;;;;;;28.37;22.03;;;19.30;99.90;;;;;;4993182;28;20681;-87
2023/09/13 01:34:16;;;;;;;27.57;19.53;;;19.30;99.90;;;;;;4994190;28;20189;-87
2023/09/13 01:36:42;;;;;;;29.13;20.03;;;19.30;99.90;;;;;;4997091;28;20292;-87
2023/09/13 01:39:08;;;;;;;27.87;21.03;;;19.40;99.90;;;;;;5003307;28;20268;-87
2023/09/13 01:41:39;;;;;;;35.90;21.97;;;19.30;99.90;;;;;;5004085;28;20228;-86
2023/09/13 01:44:06;;;;;;;30.90;22.93;;;19.30;99.90;;;;;;4999059;28;20202;-87
2023/09/13 01:46:35;;;;;;;33.73;23.57;;;19.20;99.90;;;;;;4993085;28;20716;-87
2023/09/13 01:49:02;;;;;;;36.77;24.77;;;19.20;99.90;;;;;;4993105;28;20174;-87
2023/09/13 01:51:29;;;;;;;35.97;25.47;;;19.20;99.90;;;;;;4992789;28;20197;-87
2023/09/13 01:53:55;;;;;;;41.60;27.67;;;19.20;99.90;;;;;;4992913;28;20178;-87
2023/09/13 01:56:21;;;;;;;40.63;28.17;;;19.20;99.90;;;;;;4992485;28;20181;-86
2023/09/13 01:58:50;;;;;;;41.80;27.53;;;19.10;99.90;;;;;;4992726;28;20180;-86
2023/09/13 02:01:17;;;;;;;41.53;28.57;;;19.10;99.90;;;;;;4993074;28;20248;-86
2023/09/13 02:03:43;;;;;;;42.93;30.83;;;19.20;99.90;;;;;;4993356;28;20676;-86
2023/09/13 02:06:08;;;;;;;50.40;33.97;;;19.20;99.90;;;;;;4993354;28;20178;-87
2023/09/13 02:08:35;;;;;;;51.17;32.93;;;19.20;99.90;;;;;;4995988;28;20185;-87
2023/09/13 02:11:00;;;;;;;46.07;32.53;;;19.20;99.90;;;;;;4998310;28;20193;-86
2023/09/13 02:13:26;;;;;;;55.07;34.40;;;19.20;99.90;;;;;;4997977;28;20204;-86
2023/09/13 02:15:51;;;;;;;49.30;34.27;;;19.10;99.90;;;;;;4997479;28;20181;-86
2023/09/13 02:18:17;;;;;;;47.77;32.23;;;19.20;99.90;;;;;;4997000;28;20205;-87
2023/09/13 02:20:44;;;;;;;52.87;35.23;;;19.30;99.90;;;;;;4996758;28;20182;-85
2023/09/13 02:23:09;;;;;;;53.87;34.40;;;19.20;99.90;;;;;;4996500;28;20199;-87
2023/09/13 02:25:40;;;;;;;55.27;35.00;;;19.30;99.90;;;;;;4997140;28;20178;-86
2023/09/13 02:28:06;;;;;;;50.50;33.47;;;19.20;99.90;;;;;;4997662;28;20312;-86
2023/09/13 02:30:34;;;;;;;60.97;36.83;;;19.30;99.90;;;;;;4997428;28;20217;-87
2023/09/13 02:32:59;;;;;;;60.93;37.07;;;19.20;99.90;;;;;;4997144;28;20658;-87
2023/09/13 02:35:25;;;;;;;58.30;37.73;;;19.20;99.90;;;;;;4998767;28;20185;-86
2023/09/13 02:37:51;;;;;;;60.23;38.33;;;19.30;99.90;;;;;;4996661;28;20216;-86
2023/09/13 02:40:17;;;;;;;64.17;39.40;;;19.30;99.90;;;;;;4996301;28;20174;-86
2023/09/13 02:42:43;;;;;;;64.83;40.30;;;19.20;99.90;;;;;;4997935;28;20227;-87
2023/09/13 02:45:09;;;;;;;64.77;39.13;;;19.20;99.90;;;;;;4995790;28;20173;-87
2023/09/13 02:47:34;;;;;;;62.70;39.67;;;19.20;99.90;;;;;;4995800;28;20208;-86
2023/09/13 02:50:00;;;;;;;67.03;40.40;;;19.20;99.90;;;;;;4997219;28;20216;-87
2023/09/13 02:52:30;;;;;;;65.50;38.87;;;19.20;99.90;;;;;;4995607;28;20198;-87
2023/09/13 02:54:57;;;;;;;70.63;42.10;;;19.20;99.90;;;;;;4995955;28;20188;-87
2023/09/13 02:57:23;;;;;;;69.07;41.73;;;19.50;99.90;;;;;;4995489;28;20205;-87
2023/09/13 02:59:50;;;;;;;66.80;41.00;;;19.20;99.90;;;;;;4995917;28;20174;-87
2023/09/13 03:02:15;;;;;;;63.40;40.37;;;19.20;99.90;;;;;;4996001;28;20688;-86
2023/09/13 03:04:41;;;;;;;71.70;41.87;;;19.20;99.90;;;;;;4995763;28;20204;-87
2023/09/13 03:07:08;;;;;;;61.03;39.03;;;19.10;99.90;;;;;;4997387;28;20549;-86
2023/09/13 03:09:33;;;;;;;64.30;39.90;;;19.20;99.90;;;;;;4997198;28;20712;-87
2023/09/13 03:11:59;;;;;;;67.13;40.87;;;19.30;99.90;;;;;;4995726;28;20232;-86
2023/09/13 03:14:25;;;;;;;65.30;40.63;;;19.10;99.90;;;;;;4997482;28;20181;-87
2023/09/13 03:16:50;;;;;;;68.77;40.40;;;19.00;99.90;;;;;;4996933;28;20556;-86
2023/09/13 03:19:16;;;;;;;60.67;40.43;;;19.10;99.90;;;;;;4995593;28;20182;-87
2023/09/13 03:21:44;;;;;;;56.17;38.87;;;19.10;99.90;;;;;;4996470;28;20193;-87
2023/09/13 03:24:10;;;;;;;60.47;39.17;;;19.10;99.90;;;;;;4995354;28;20645;-88
2023/09/13 03:26:35;;;;;;;67.10;40.73;;;19.10;99.90;;;;;;4996716;28;20219;-86
2023/09/13 03:29:01;;;;;;;58.37;39.10;;;19.00;99.90;;;;;;4995160;28;20546;-87
2023/09/13 03:31:27;;;;;;;58.83;38.03;;;19.10;99.90;;;;;;4995034;28;20228;-87
2023/09/13 03:33:55;;;;;;;61.23;39.70;;;19.00;99.90;;;;;;4995235;28;20221;-87
2023/09/13 03:36:21;;;;;;;58.77;38.97;;;19.00;99.90;;;;;;4995559;28;20232;-86
2023/09/13 03:38:47;;;;;;;62.40;39.93;;;19.00;99.90;;;;;;4995485;28;20240;-87
2023/09/13 03:41:15;;;;;;;66.30;38.57;;;19.00;99.90;;;;;;4996427;28;20206;-87
2023/09/13 03:43:41;;;;;;;66.57;41.10;;;19.00;99.90;;;;;;4995417;28;20308;-87
2023/09/13 03:46:07;;;;;;;63.57;40.00;;;18.90;99.90;;;;;;4998925;28;20178;-87
2023/09/13 03:48:34;;;;;;;61.87;39.77;;;19.00;99.90;;;;;;5004215;28;20185;-86
2023/09/13 03:51:00;;;;;;;69.97;40.90;;;18.90;99.90;;;;;;5007845;28;20202;-87
2023/09/13 03:53:26;;;;;;;61.13;40.40;;;18.80;99.90;;;;;;4998475;28;20174;-86
2023/09/13 03:55:53;;;;;;;63.70;41.80;;;19.00;99.90;;;;;;4996991;28;20260;-86
2023/09/13 03:58:19;;;;;;;62.57;40.70;;;18.90;99.90;;;;;;4996494;28;20340;-86
2023/09/13 04:00:44;;;;;;;64.17;39.87;;;18.90;99.90;;;;;;4996429;28;20549;-86
2023/09/13 04:03:11;;;;;;;64.43;40.07;;;18.90;99.90;;;;;;4995508;28;20180;-87
2023/09/13 04:05:37;;;;;;;61.83;40.90;;;19.00;99.90;;;;;;4995577;28;20604;-86
2023/09/13 04:08:03;;;;;;;65.13;42.90;;;18.80;99.90;;;;;;4997009;28;20186;-86
2023/09/13 04:10:28;;;;;;;65.10;41.07;;;18.90;99.90;;;;;;4995147;28;20675;-87
2023/09/13 04:12:54;;;;;;;69.67;43.93;;;18.80;99.90;;;;;;4996658;28;20174;-86
2023/09/13 04:15:20;;;;;;;68.03;42.57;;;18.80;99.90;;;;;;4997249;28;20184;-86
2023/09/13 04:17:45;;;;;;;68.47;42.47;;;18.80;99.90;;;;;;4996521;28;20197;-87
2023/09/13 04:20:11;;;;;;;68.73;43.37;;;18.80;99.90;;;;;;4995868;28;20177;-86
2023/09/13 04:22:37;;;;;;;74.63;42.83;;;18.70;99.90;;;;;;4996381;28;20328;-85
2023/09/13 04:25:04;;;;;;;64.40;42.73;;;18.80;99.90;;;;;;5000373;28;20668;-84
2023/09/13 04:27:30;;;;;;;68.07;42.47;;;18.80;99.90;;;;;;5000769;28;20181;-84
2023/09/13 04:29:55;;;;;;;74.27;44.43;;;18.90;99.90;;;;;;4999805;28;20216;-84
2023/09/13 04:32:21;;;;;;;71.20;43.50;;;18.90;99.90;;;;;;4999906;28;20295;-85
2023/09/13 04:34:47;;;;;;;67.87;41.90;;;18.70;99.90;;;;;;4999285;28;20188;-84
2023/09/13 04:37:15;;;;;;;71.03;41.00;;;18.80;99.90;;;;;;5001244;28;20263;-84
2023/09/13 04:39:41;;;;;;;65.90;41.73;;;18.80;99.90;;;;;;5002237;28;20174;-84
2023/09/13 04:42:06;;;;;;;63.40;40.53;;;18.90;99.90;;;;;;4999746;28;20348;-84
2023/09/13 04:44:32;;;;;;;60.13;40.23;;;18.80;99.90;;;;;;4998258;28;20533;-84
2023/09/13 04:46:59;;;;;;;64.80;41.60;;;18.80;99.90;;;;;;4999373;28;20181;-84
2023/09/13 04:49:25;;;;;;;64.25;42.97;;;18.80;99.90;;;;;;4999698;28;20427;-84
2023/09/13 04:51:52;;;;;;;73.68;48.40;;;18.80;99.90;;;;;;4998109;28;20456;-86
2023/09/13 04:54:18;;;;;;;64.40;41.63;;;18.70;99.90;;;;;;4999723;28;20535;-84
2023/09/13 04:56:43;;;;;;;62.87;40.60;;;18.70;99.90;;;;;;4998433;28;20190;-83
2023/09/13 04:59:09;;;;;;;63.07;38.50;;;18.70;99.90;;;;;;4998771;28;20173;-85
2023/09/13 05:01:34;;;;;;;61.40;39.53;;;18.80;99.90;;;;;;5000261;28;20197;-85
2023/09/13 05:04:00;;;;;;;61.43;39.37;;;18.80;99.90;;;;;;5001883;28;20545;-85
2023/09/13 05:06:26;;;;;;;65.03;41.20;;;18.70;99.90;;;;;;4999078;28;20603;-84
2023/09/13 05:08:52;;;;;;;60.50;41.13;;;18.80;99.90;;;;;;5000899;28;20178;-84
2023/09/13 05:11:19;;;;;;;71.13;41.30;;;18.70;99.90;;;;;;4999577;28;20216;-85
2023/09/13 05:13:47;;;;;;;67.77;39.83;;;18.50;99.90;;;;;;4999649;28;20185;-84
2023/09/13 05:16:14;;;;;;;63.80;40.23;;;18.80;99.90;;;;;;4999144;28;20684;-84
2023/09/13 05:18:40;;;;;;;59.77;37.93;;;18.90;99.90;;;;;;4997947;28;20213;-85
2023/09/13 05:21:05;;;;;;;56.83;37.97;;;18.70;99.90;;;;;;5000578;28;20692;-84
2023/09/13 05:23:31;;;;;;;60.07;39.50;;;18.70;99.90;;;;;;5001088;28;20170;-84
2023/09/13 05:25:56;;;;;;;61.33;39.13;;;18.70;99.90;;;;;;5000725;28;20599;-84
2023/09/13 05:28:22;;;;;;;64.17;38.70;;;18.60;99.90;;;;;;5003046;28;20178;-84
2023/09/13 05:30:51;;;;;;;58.40;36.80;;;18.80;99.90;;;;;;5000469;28;20197;-84
2023/09/13 05:33:16;;;;;;;58.77;37.47;;;18.70;99.90;;;;;;5000590;28;20193;-85
2023/09/13 05:35:42;;;;;;;64.37;39.37;;;18.60;99.90;;;;;;5001702;28;20268;-85
2023/09/13 05:38:07;;;;;;;62.57;38.53;;;18.60;99.90;;;;;;5003275;28;20228;-85
2023/09/13 05:40:33;;;;;;;63.13;40.23;;;18.80;99.90;;;;;;5001493;28;20185;-84
2023/09/13 05:43:02;;;;;;;70.80;40.27;;;18.70;99.90;;;;;;5002423;28;20174;-83
2023/09/13 05:45:28;;;;;;;59.00;41.00;;;18.60;99.90;;;;;;5004824;28;20249;-84
2023/09/13 05:47:53;;;;;;;67.00;41.70;;;18.60;99.90;;;;;;5001537;28;20185;-84
2023/09/13 05:50:19;;;;;;;64.00;39.93;;;18.60;99.90;;;;;;5001520;28;20231;-85
2023/09/13 05:52:44;;;;;;;60.37;37.87;;;18.60;99.90;;;;;;5002457;28;20263;-85
2023/09/13 05:55:10;;;;;;;59.40;38.37;;;18.60;99.90;;;;;;5002334;28;20265;-84
2023/09/13 05:57:35;;;;;;;58.27;38.30;;;18.60;99.90;;;;;;5003770;28;20616;-84
2023/09/13 06:00:01;;;;;;;59.90;37.53;;;18.60;99.90;;;;;;4997837;28;20622;-85
2023/09/13 06:02:26;;;;;;;57.93;38.67;;;18.60;99.90;;;;;;4997703;28;20193;-84
2023/09/13 06:04:52;;;;;;;57.87;37.17;;;18.60;99.90;;;;;;4999457;28;20174;-85
2023/09/13 06:07:17;;;;;;;57.90;36.53;;;18.60;99.90;;;;;;4998521;28;20245;-84
2023/09/13 06:09:43;;;;;;;62.93;38.00;;;18.70;99.90;;;;;;4999189;28;20181;-84
2023/09/13 06:12:09;;;;;;;58.40;37.90;;;18.70;99.90;;;;;;4997214;28;20197;-84
2023/09/13 06:14:34;;;;;;;58.10;36.57;;;18.70;99.90;;;;;;4999405;28;20185;-84
2023/09/13 06:17:00;;;;;;;57.80;36.93;;;18.70;99.90;;;;;;4998961;28;20193;-85
2023/09/13 06:19:25;;;;;;;61.43;36.57;;;18.70;99.90;;;;;;4999503;28;20173;-84
2023/09/13 06:21:51;;;;;;;59.87;38.93;;;18.60;99.90;;;;;;4999687;28;20185;-84
2023/09/13 06:24:17;;;;;;;57.77;37.17;;;18.70;99.90;;;;;;4998851;28;20174;-85
2023/09/13 06:26:42;;;;;;;63.90;38.77;;;18.60;99.90;;;;;;4997770;28;20181;-86
2023/09/13 06:29:09;;;;;;;64.60;39.27;;;18.60;99.90;;;;;;4996362;28;20489;-85
2023/09/13 06:31:35;;;;;;;63.43;38.93;;;18.80;99.90;;;;;;4993653;28;20217;-86
2023/09/13 06:34:03;;;;;;;62.27;38.57;;;18.70;99.90;;;;;;4995665;28;20188;-86
2023/09/13 06:36:28;;;;;;;59.33;38.33;;;18.50;99.90;;;;;;4994798;28;20184;-86
2023/09/13 06:38:54;;;;;;;66.40;40.67;;;18.70;99.90;;;;;;4994844;28;20268;-86
2023/09/13 06:41:20;;;;;;;64.83;38.50;;;18.80;99.90;;;;;;4992659;28;20230;-85
2023/09/13 06:43:45;;;;;;;62.10;38.00;;;18.60;99.90;;;;;;4994968;28;20174;-86
2023/09/13 06:46:11;;;;;;;61.10;39.60;;;18.70;99.90;;;;;;4992390;28;20170;-86
2023/09/13 06:48:36;;;;;;;62.17;37.33;;;18.80;99.90;;;;;;4994476;28;20276;-86
2023/09/13 06:51:03;;;;;;;61.80;38.03;;;18.70;99.90;;;;;;4992956;28;20233;-86
2023/09/13 06:53:28;;;;;;;62.10;38.83;;;18.80;99.90;;;;;;4994200;28;20174;-86
2023/09/13 06:55:54;;;;;;;61.73;36.50;;;18.70;99.90;;;;;;4996620;28;20184;-86
2023/09/13 06:58:19;;;;;;;61.57;38.83;;;18.80;99.90;;;;;;4998214;28;20695;-86
2023/09/13 07:00:45;;;;;;;54.47;34.90;;;18.70;99.90;;;;;;4997569;28;20617;-86
2023/09/13 07:03:10;;;;;;;58.23;37.17;;;18.90;99.90;;;;;;4996569;28;20177;-86
2023/09/13 07:05:36;;;;;;;55.27;36.03;;;18.80;99.90;;;;;;4996742;28;20178;-86
2023/09/13 07:08:03;;;;;;;56.17;36.83;;;18.80;99.90;;;;;;4998865;28;20179;-86
2023/09/13 07:10:29;;;;;;;57.27;35.87;;;18.80;99.90;;;;;;4998976;28;20176;-86
2023/09/13 07:12:55;;;;;;;56.83;36.10;;;18.80;99.90;;;;;;4995830;28;20616;-87
2023/09/13 07:15:21;;;;;;;54.20;37.00;;;19.00;99.90;;;;;;4996281;28;20173;-86
2023/09/13 07:17:46;;;;;;;61.03;37.53;;;18.90;99.90;;;;;;4997776;28;20244;-86
2023/09/13 07:20:12;;;;;;;60.87;37.77;;;18.90;99.90;;;;;;4996763;28;20213;-86
2023/09/13 07:22:39;;;;;;;53.40;35.97;;;18.90;99.90;;;;;;5000015;28;20201;-85
2023/09/13 07:25:05;;;;;;;55.27;34.37;;;18.90;99.90;;;;;;4997768;28;20181;-86
2023/09/13 07:27:31;;;;;;;51.63;34.67;;;18.90;99.90;;;;;;4997056;28;20193;-87
2023/09/13 07:29:56;;;;;;;54.97;33.87;;;18.90;99.90;;;;;;4997039;28;20181;-86
2023/09/13 07:32:22;;;;;;;51.60;33.13;;;19.00;99.90;;;;;;4996068;28;20209;-86
2023/09/13 07:34:47;;;;;;;48.37;34.53;;;19.10;99.90;;;;;;4996883;28;20193;-85
2023/09/13 07:37:13;;;;;;;46.00;31.23;;;19.00;99.90;;;;;;4998905;28;20292;-86
2023/09/13 07:39:39;;;;;;;47.33;31.67;;;18.90;99.90;;;;;;4998264;28;20170;-85
2023/09/13 07:42:05;;;;;;;51.17;33.33;;;19.00;99.90;;;;;;4996622;28;20200;-86
2023/09/13 07:44:31;;;;;;;44.87;30.73;;;19.00;99.90;;;;;;4977057;28;20182;-86
2023/09/13 07:46:57;;;;;;;41.33;31.10;;;19.00;99.90;;;;;;4976877;28;20612;-85
2023/09/13 07:49:23;;;;;;;47.80;31.33;;;19.00;99.90;;;;;;4979180;28;20249;-88
2023/09/13 07:51:49;;;;;;;47.23;31.50;;;19.00;99.90;;;;;;4980290;28;20225;-85
2023/09/13 07:54:15;;;;;;;42.47;29.63;;;18.90;99.90;;;;;;4977770;28;20189;-85
2023/09/13 07:56:41;;;;;;;48.17;31.63;;;19.00;99.90;;;;;;4978451;28;20190;-85
2023/09/13 07:59:08;;;;;;;46.33;28.00;;;19.00;99.90;;;;;;4977719;28;20613;-86
2023/09/13 08:01:33;;;;;;;40.07;27.47;;;19.10;99.90;;;;;;4979344;28;20210;-85
2023/09/13 08:03:59;;;;;;;39.87;27.80;;;19.10;99.90;;;;;;4977672;28;20182;-85
2023/09/13 08:06:25;;;;;;;38.77;26.67;;;19.10;99.90;;;;;;4979619;28;20265;-85
2023/09/13 08:08:51;;;;;;;38.30;26.57;;;19.10;99.90;;;;;;4979279;28;20257;-86
2023/09/13 08:11:17;;;;;;;39.70;26.37;;;19.10;99.90;;;;;;4979398;28;20194;-85
2023/09/13 08:13:42;;;;;;;34.60;23.50;;;19.10;99.90;;;;;;4978657;28;20244;-84
2023/09/13 08:16:08;;;;;;;40.17;23.83;;;19.00;99.90;;;;;;4980496;28;20205;-84
2023/09/13 08:18:34;;;;;;;32.83;23.93;;;19.10;99.90;;;;;;4979560;28;20210;-86
2023/09/13 08:21:00;;;;;;;33.33;23.10;;;19.30;99.90;;;;;;4978829;28;20203;-84
2023/09/13 08:23:25;;;;;;;30.07;22.80;;;19.10;99.90;;;;;;4981573;28;20210;-84
2023/09/13 08:25:51;;;;;;;37.53;24.57;;;18.90;99.90;;;;;;4980927;28;20214;-84
2023/09/13 08:28:16;;;;;;;30.73;22.53;;;19.10;99.90;;;;;;4979392;28;20214;-84
2023/09/13 08:30:43;;;;;;;33.33;22.53;;;19.20;99.90;;;;;;4979677;28;20185;-83
2023/09/13 08:33:11;;;;;;;29.60;20.37;;;19.00;99.90;;;;;;4980097;28;20190;-83
2023/09/13 08:35:36;;;;;;;30.70;20.63;;;19.10;99.90;;;;;;4980603;28;20204;-84
2023/09/13 08:38:03;;;;;;;29.80;21.03;;;19.20;99.90;;;;;;4978928;28;20206;-83
2023/09/13 08:40:29;;;;;;;31.33;20.23;;;19.10;99.90;;;;;;4979959;28;20182;-84
2023/09/13 08:42:56;;;;;;;29.37;20.57;;;19.10;99.90;;;;;;4979069;28;20189;-84
2023/09/13 08:45:22;;;;;;;30.67;21.43;;;19.10;99.90;;;;;;4979203;28;20261;-83
2023/09/13 08:47:50;;;;;;;29.97;21.30;;;19.10;99.90;;;;;;4978955;28;20185;-83
2023/09/13 08:50:19;;;;;;;27.60;21.47;;;19.10;99.90;;;;;;4986682;28;20183;-82
2023/09/13 08:52:46;;;;;;;28.43;21.53;;;19.20;99.90;;;;;;4989243;28;20216;-82
2023/09/13 08:55:13;;;;;;;27.90;20.70;;;19.00;99.90;;;;;;4981027;28;20658;-82
2023/09/13 08:57:39;;;;;;;33.63;22.10;;;19.30;99.90;;;;;;4978832;28;20202;-82
2023/09/13 09:00:08;;;;;;;32.97;22.10;;;19.40;99.90;;;;;;4979362;28;20174;-82
2023/09/13 09:02:34;;;;;;;29.97;20.73;;;19.30;99.90;;;;;;4977179;28;20197;-82
2023/09/13 09:05:01;;;;;;;27.47;19.47;;;19.50;99.90;;;;;;4978399;28;20171;-82
2023/09/13 09:07:27;;;;;;;27.37;19.67;;;19.40;99.90;;;;;;4979074;28;20186;-82
2023/09/13 09:09:54;;;;;;;27.03;19.67;;;19.50;99.90;;;;;;4977927;28;20637;-82
2023/09/13 09:12:21;;;;;;;27.67;20.57;;;19.50;99.90;;;;;;4978328;28;20202;-83
2023/09/13 09:14:50;;;;;;;31.40;18.63;;;19.60;99.90;;;;;;4979910;28;20228;-82
2023/09/13 09:17:17;;;;;;;28.63;18.50;;;19.70;99.90;;;;;;4979606;28;20205;-82
2023/09/13 09:19:43;;;;;;;21.23;15.87;;;19.70;99.90;;;;;;4979209;28;20262;-83
2023/09/13 09:22:10;;;;;;;26.47;16.63;;;19.70;99.90;;;;;;4980976;28;20261;-82
2023/09/13 09:24:35;;;;;;;20.83;15.90;;;19.70;99.90;;;;;;4979825;28;20178;-82
2023/09/13 09:27:01;;;;;;;27.53;17.27;;;19.80;99.90;;;;;;4980732;28;20253;-82
2023/09/13 09:29:35;;;;;;;21.73;16.97;;;19.80;99.90;;;;;;4982497;28;20178;-82
2023/09/13 09:32:03;;;;;;;22.63;17.43;;;20.00;99.90;;;;;;4981905;28;20221;-82
2023/09/13 09:34:30;;;;;;;21.27;16.20;;;19.90;99.90;;;;;;4979607;28;20201;-82
2023/09/13 09:37:07;;;;;;;25.67;17.80;;;19.80;99.90;;;;;;4982259;28;20281;-82
2023/09/13 09:39:40;;;;;;;24.03;17.93;;;19.90;99.90;;;;;;4981695;28;20155;-82
2023/09/13 09:42:06;;;;;;;23.43;17.60;;;19.90;99.90;;;;;;4980145;28;20198;-82
2023/09/13 09:44:32;;;;;;;24.90;18.33;;;19.90;99.90;;;;;;4979948;28;20178;-82
2023/09/13 09:46:58;;;;;;;25.37;17.27;;;19.90;99.90;;;;;;4980357;28;20201;-82
2023/09/13 09:49:27;;;;;;;23.93;17.57;;;19.90;99.90;;;;;;4981145;28;20200;-82
2023/09/13 09:51:53;;;;;;;27.67;18.30;;;20.00;99.90;;;;;;4980356;28;20202;-82
2023/09/13 09:54:19;;;;;;;27.60;18.07;;;19.90;99.90;;;;;;4981918;28;20185;-82
2023/09/13 09:56:45;;;;;;;28.97;17.80;;;20.00;99.90;;;;;;4981871;28;20182;-81
2023/09/13 09:59:11;;;;;;;21.87;16.43;;;20.00;99.90;;;;;;4982730;28;20261;-82
2023/09/13 10:01:42;;;;;;;22.90;16.33;;;20.20;99.90;;;;;;4980953;28;20347;-81
2023/09/13 10:04:11;;;;;;;22.80;16.90;;;20.10;99.90;;;;;;4981060;28;20183;-82
2023/09/13 10:06:37;;;;;;;13.40;10.30;;;20.10;99.90;;;;;;4981607;28;20611;-82
2023/09/13 10:09:06;;;;;;;16.90;9.70;;;20.00;99.90;;;;;;4980505;28;20244;-82
2023/09/13 10:11:32;;;;;;;10.30;6.80;;;19.90;99.90;;;;;;4979039;28;20251;-82
2023/09/13 10:13:58;;;;;;;12.80;6.83;;;19.70;99.90;;;;;;4979610;28;20257;-82
2023/09/13 10:16:30;;;;;;;12.03;5.87;;;19.90;99.90;;;;;;4979087;28;20178;-82
2023/09/13 10:19:02;;;;;;;10.77;6.07;;;19.70;99.90;;;;;;4978590;28;20277;-82
2023/09/13 10:21:30;;;;;;;9.30;6.37;;;19.40;99.90;;;;;;4980420;28;20194;-80
2023/09/13 10:24:06;;;;;;;14.47;7.70;;;19.20;99.90;;;;;;4976802;28;20614;-80
2023/09/13 10:26:33;;;;;;;15.70;7.00;;;19.20;99.90;;;;;;4976528;28;20178;-81
2023/09/13 10:29:24;;;;;;;15.50;8.60;;;19.00;99.90;;;;;;4979564;28;20265;-81
2023/09/13 10:31:54;;;;;;;12.37;8.13;;;18.70;99.90;;;;;;4981708;28;20196;-81
2023/09/13 10:34:25;;;;;;;13.33;8.60;;;18.60;99.90;;;;;;4981258;28;20220;-81
2023/09/13 10:37:02;;;;;;;14.37;8.33;;;18.50;99.90;;;;;;4979586;28;20175;-82
2023/09/13 10:39:30;;;;;;;9.60;7.60;;;18.40;99.90;;;;;;4981775;28;20154;-81
2023/09/13 10:42:10;;;;;;;8.00;7.17;;;18.30;99.90;;;;;;4980219;28;20200;-81
2023/09/13 10:44:36;;;;;;;5.83;4.47;;;18.10;99.90;;;;;;4981340;28;20185;-81
2023/09/13 10:47:04;;;;;;;6.30;5.30;;;17.90;99.90;;;;;;4982763;28;20613;-81
2023/09/13 10:49:29;;;;;;;7.57;3.73;;;18.00;99.90;;;;;;4981088;28;20174;-81
2023/09/13 10:51:56;;;;;;;5.53;3.57;;;18.10;99.90;;;;;;4982209;28;20249;-82
2023/09/13 10:54:24;;;;;;;4.13;2.40;;;18.00;99.90;;;;;;4982827;28;20166;-82
2023/09/13 10:56:49;;;;;;;3.47;2.40;;;18.00;99.90;;;;;;4981623;28;20178;-82
2023/09/13 10:59:21;;;;;;;5.83;2.53;;;17.90;99.90;;;;;;4982496;28;20262;-82
2023/09/13 11:01:47;;;;;;;4.17;2.27;;;17.90;99.90;;;;;;4980977;28;20190;-81
2023/09/13 11:04:18;;;;;;;6.93;2.30;;;17.90;99.90;;;;;;4982585;28;20265;-81
2023/09/13 11:06:45;;;;;;;4.97;2.40;;;17.80;99.90;;;;;;4981129;28;20174;-81
2023/09/13 11:09:15;;;;;;;4.27;2.00;;;18.00;99.90;;;;;;4981673;28;20178;-81
2023/09/13 11:11:46;;;;;;;3.00;2.10;;;18.00;99.90;;;;;;4981345;28;20209;-81
2023/09/13 11:14:17;;;;;;;4.43;2.17;;;18.10;99.90;;;;;;4981977;28;20167;-81
2023/09/13 11:16:43;;;;;;;6.97;2.47;;;17.90;99.90;;;;;;4980638;28;20166;-82
2023/09/13 11:19:10;;;;;;;4.03;2.27;;;18.00;99.90;;;;;;4980454;28;20177;-81
2023/09/13 11:21:49;;;;;;;5.07;2.57;;;18.10;99.90;;;;;;4982294;28;20252;-81
2023/09/13 11:24:34;;;;;;;3.93;2.10;;;18.20;99.90;;;;;;4981474;28;20653;-82
2023/09/13 11:27:13;;;;;;;3.73;2.17;;;18.10;99.90;;;;;;4985090;28;20601;-82
2023/09/13 11:29:44;;;;;;;4.47;2.20;;;18.00;99.90;;;;;;4999005;28;20165;-81
2023/09/13 11:32:21;;;;;;;4.87;2.10;;;18.20;99.90;;;;;;4974024;28;20294;-81
2023/09/13 11:34:55;;;;;;;4.63;1.90;;;18.30;99.90;;;;;;4969694;28;20251;-81
2023/09/13 11:37:23;;;;;;;7.73;1.87;;;18.40;99.90;;;;;;4969515;28;20191;-82
2023/09/13 11:40:12;;;;;;;3.67;2.07;;;18.40;99.90;;;;;;4970070;28;20175;-83
2023/09/13 11:42:39;;;;;;;2.40;1.77;;;18.50;99.90;;;;;;4970344;28;20562;-83
2023/09/13 11:45:09;;;;;;;4.47;1.83;;;18.50;99.90;;;;;;4967535;28;20170;-80
2023/09/13 11:47:36;;;;;;;2.77;1.80;;;18.40;99.90;;;;;;4968915;28;20547;-81
2023/09/13 11:50:03;;;;;;;6.03;2.50;;;18.50;99.90;;;;;;5002569;28;20186;-81
2023/09/13 11:53:11;;;;;;;5.27;2.30;;;18.50;99.90;;;;;;4974116;28;20230;-81
2023/09/13 11:55:56;;;;;;;6.97;2.17;;;18.60;99.90;;;;;;4974362;28;20171;-80
2023/09/13 11:58:46;;;;;;;6.00;1.80;;;18.60;99.90;;;;;;4972103;28;20190;-80
2023/09/13 12:01:11;;;;;;;2.73;1.80;;;18.60;99.90;;;;;;4975192;28;20265;-81
2023/09/13 12:03:41;;;;;;;8.70;1.97;;;18.60;99.90;;;;;;4976288;28;20627;-80
2023/09/13 12:06:08;;;;;;;5.50;2.30;;;18.60;99.90;;;;;;4977019;28;20261;-79
2023/09/13 12:08:37;;;;;;;3.03;2.00;;;18.60;99.90;;;;;;4976319;28;20178;-79
2023/09/13 12:11:05;;;;;;;4.10;2.20;;;18.70;99.90;;;;;;4970454;28;20252;-79
2023/09/13 12:13:52;;;;;;;4.57;1.97;;;18.80;99.90;;;;;;4977935;28;20205;-79
2023/09/13 12:16:18;;;;;;;4.57;1.73;;;18.90;99.90;;;;;;4978297;28;20178;-79
2023/09/13 12:18:44;;;;;;;4.27;2.03;;;18.90;99.90;;;;;;4979404;28;20194;-79
2023/09/13 12:21:11;;;;;;;5.80;2.27;;;18.90;99.90;;;;;;4977777;28;20191;-78
2023/09/13 12:23:38;;;;;;;3.50;2.37;;;18.90;99.90;;;;;;4976136;28;20197;-79
2023/09/13 12:26:10;;;;;;;7.03;2.40;;;18.90;99.90;;;;;;4978264;28;20221;-79
2023/09/13 12:28:38;;;;;;;3.07;1.90;;;18.90;99.90;;;;;;4977737;28;20181;-79
2023/09/13 12:31:12;;;;;;;6.40;2.20;;;19.00;99.90;;;;;;4977771;28;20202;-80
2023/09/13 12:33:40;;;;;;;3.57;2.20;;;19.00;99.90;;;;;;4978544;28;20630;-79